Darstellungsparameter: Aktuell verwendete Einstellungen:
Skalierung der Graphiken ... ?
xyx+y,   Skalierungsfaktor:      Skalierung: Modus: x, Faktor: 1
Darstellungszeitraum ... ?
Vom - - bis: - -   Zeitraum: 10.05.2015 - 12.05.2015
Min/Max/Avg-Anzeige ... ?
Zeige MMA aktuell
Zeige MMA Monat
Zeige MMA alles
Zeige --A aktuell
Zeige --A Monat
Zeige --A alles
Keine MMA-Anzeige
MMA:
Average (ber die Originaldaten)
MMA-Basis: 10.05.2015 - 12.05.2015
Quicknavigation für Darstellung... ?
Tage:      1T, 2T, 3T, 5T -1T -2T -3T -5T +1T +2T +3T +5T
Wochen: 1W, 2W, 3W -1W -2W -3W +1W +2W +3W
Monate: 1M, 3M, 6M -1M -3M -6M +1M +3M +6M
Jahre:    1J, 3J, 5J, 10J -1J -3J -5J -10J +1J +3J +5J +10J
Nutze für die Darstellung ... ?
Originaldaten oder ...
Mittelwerte Minima Maxima auf...
Stundenbasis Tagesbasis Wochenbasis
Monatsbasis Jahresbasis      Datenbasis: Mittelwerte auf Stundenbasis
Darstellen als:
Statistik (Auto) Statistik J:M      Darstellung:
Zur Graphik,    zurück zur Übersicht aller Sensoren.
 
Tabellarische Datenbersicht: ?
 
Sensor: Nr:Datum:Temp:Abs-Feuchte:Windchill:Wind:
Aussen-T/F 1 10-05-2015 00:00:00 11.025 C 9.24 g/m*3 11.03 C 1.06667 km/h
2 10-05-2015 01:00:00 10.58333 C 9.06 g/m*3 10.58 C 2 km/h
3 10-05-2015 02:00:00 10.3 C 8.87 g/m*3 10.3 C 0.66667 km/h
4 10-05-2015 03:00:00 9.84167 C 8.67 g/m*3 9.84 C 1.06667 km/h
5 10-05-2015 04:00:00 10.21667 C 8.58 g/m*3 10.22 C 3.06667 km/h
6 10-05-2015 05:00:00 9.44167 C 8.24 g/m*3 9.44 C 1.46667 km/h
7 10-05-2015 06:00:00 9.21667 C 8.29 g/m*3 9.22 C 2.26667 km/h
8 10-05-2015 07:00:00 10.11667 C 8.63 g/m*3 9.56 C 6.15833 km/h
9 10-05-2015 08:00:00 11.225 C 9.11 g/m*3 11.23 C 8.475 km/h
10 10-05-2015 09:00:00 12.75 C 9.43 g/m*3 12.75 C 4.93333 km/h
11 10-05-2015 10:00:00 14.5 C 9.18 g/m*3 14.5 C 5.225 km/h
12 10-05-2015 11:00:00 16.53333 C 9.65 g/m*3 16.53 C 6.29167 km/h
13 10-05-2015 12:00:00 16.925 C 9.51 g/m*3 16.93 C 3.33333 km/h
14 10-05-2015 13:00:00 18.13333 C 9.68 g/m*3 18.13 C 3.86667 km/h
15 10-05-2015 14:00:00 20.26667 C 9.43 g/m*3 20.27 C 6.85 km/h
16 10-05-2015 15:00:00 21.16667 C 9.34 g/m*3 21.17 C 7.51667 km/h
17 10-05-2015 16:00:00 22.11667 C 9.05 g/m*3 22.12 C 7.79167 km/h
18 10-05-2015 17:00:00 22.48333 C 8.96 g/m*3 22.48 C 5.9 km/h
19 10-05-2015 18:00:00 21.45833 C 9.01 g/m*3 21.46 C 4.80833 km/h
20 10-05-2015 19:00:00 19.90833 C 10.6 g/m*3 19.91 C 1.33333 km/h
21 10-05-2015 20:00:00 16.6 C 10.58 g/m*3 16.6 C 0.8 km/h
22 10-05-2015 21:00:00 14.25 C 9.71 g/m*3 14.25 C 1.6 km/h
23 10-05-2015 22:00:00 13.25833 C 9.35 g/m*3 13.26 C 0.13333 km/h
24 10-05-2015 23:00:00 12.45833 C 9.15 g/m*3 12.46 C 0.26667 km/h
25 11-05-2015 00:00:00 11.5 C 8.93 g/m*3 11.5 C 0.53333 km/h
Sensor: Nr:Datum:Temp:Abs-Feuchte:Windchill:Wind:
Aussen-T/F 26 11-05-2015 01:00:00 11.35833 C 8.92 g/m*3 11.36 C 0 km/h
27 11-05-2015 02:00:00 10.50833 C 8.6 g/m*3 10.51 C 0 km/h
28 11-05-2015 03:00:00 9.60833 C 8.39 g/m*3 9.61 C 0 km/h
29 11-05-2015 04:00:00 9.2 C 8.29 g/m*3 9.2 C 0 km/h
30 11-05-2015 05:00:00 8.71667 C 8.1 g/m*3 8.72 C 0 km/h
31 11-05-2015 06:00:00 8.76667 C 8.19 g/m*3 8.77 C 0 km/h
32 11-05-2015 07:00:00 9.8 C 8.72 g/m*3 9.8 C 0 km/h
33 11-05-2015 08:00:00 11.40833 C 9.29 g/m*3 11.41 C 0 km/h
34 11-05-2015 09:00:00 13.575 C 9.68 g/m*3 13.58 C 0 km/h
35 11-05-2015 10:00:00 15.975 C 10.69 g/m*3 15.98 C 0 km/h
36 11-05-2015 11:00:00 19.825 C 10.96 g/m*3 19.83 C 4.13333 km/h
37 11-05-2015 12:00:00 22.25833 C 11.33 g/m*3 22.26 C 5.48333 km/h
38 11-05-2015 13:00:00 23.95833 C 11.45 g/m*3 23.96 C 5.88333 km/h
39 11-05-2015 14:00:00 24.425 C 11.76 g/m*3 24.43 C 6.16667 km/h
40 11-05-2015 15:00:00 26.49167 C 11.74 g/m*3 26.49 C 6.975 km/h
41 11-05-2015 16:00:00 26.64167 C 11.31 g/m*3 26.64 C 6.58333 km/h
42 11-05-2015 17:00:00 26.11667 C 11.93 g/m*3 26.12 C 5.21667 km/h
43 11-05-2015 18:00:00 26.43333 C 12.72 g/m*3 26.43 C 3.875 km/h
44 11-05-2015 19:00:00 22.76667 C 13.45 g/m*3 22.77 C 1.6 km/h
45 11-05-2015 20:00:00 20.06667 C 12.56 g/m*3 20.07 C 2.13333 km/h
46 11-05-2015 21:00:00 18.625 C 11.94 g/m*3 18.63 C 1.33333 km/h
47 11-05-2015 22:00:00 17.16667 C 11.47 g/m*3 17.17 C 0.13333 km/h
48 11-05-2015 23:00:00 15.88333 C 11.12 g/m*3 15.88 C 0 km/h
49 12-05-2015 00:00:00 14.79167 C 10.74 g/m*3 14.79 C 0 km/h
50 12-05-2015 01:00:00 14 C 10.58 g/m*3 14 C 0 km/h
Sensor: Nr:Datum:Temp:Abs-Feuchte:Windchill:Wind:
Aussen-T/F 51 12-05-2015 02:00:00 13.625 C 10.56 g/m*3 13.63 C 0 km/h
52 12-05-2015 03:00:00 13.29167 C 10.46 g/m*3 13.29 C 0.13333 km/h
53 12-05-2015 04:00:00 12.975 C 10.4 g/m*3 12.98 C 0.13333 km/h
54 12-05-2015 05:00:00 12.95833 C 10.43 g/m*3 12.96 C 0.13333 km/h
55 12-05-2015 06:00:00 12.94167 C 10.45 g/m*3 12.94 C 0 km/h
56 12-05-2015 07:00:00 13.61667 C 10.88 g/m*3 13.62 C 0.4 km/h
57 12-05-2015 08:00:00 15.33333 C 11.41 g/m*3 15.33 C 1.06667 km/h
58 12-05-2015 09:00:00 17.5 C 12.51 g/m*3 17.5 C 0.26667 km/h
59 12-05-2015 10:00:00 19.75833 C 13.8 g/m*3 19.76 C 0.66667 km/h
60 12-05-2015 11:00:00 23.09167 C 13.6 g/m*3 23.09 C 10.04167 km/h
61 12-05-2015 12:00:00 25.33333 C 13.11 g/m*3 25.33 C 15.03333 km/h
62 12-05-2015 13:00:00 27.10833 C 13.18 g/m*3 27.11 C 15.3 km/h
63 12-05-2015 14:00:00 27.20833 C 13.58 g/m*3 27.21 C 10.61667 km/h
64 12-05-2015 15:00:00 24.74167 C 14.12 g/m*3 24.74 C 13.01667 km/h
65 12-05-2015 16:00:00 20.95 C 14.76 g/m*3 20.95 C 3.06667 km/h
66 12-05-2015 17:00:00 19.26667 C 13.35 g/m*3 19.27 C 4.425 km/h
67 12-05-2015 18:00:00 19.25833 C 10.67 g/m*3 19.26 C 8.59167 km/h
68 12-05-2015 19:00:00 19.74167 C 9.87 g/m*3 19.74 C 11.96667 km/h
69 12-05-2015 20:00:00 18.73333 C 9.33 g/m*3 18.73 C 10.86667 km/h
70 12-05-2015 21:00:00 16.71667 C 9.14 g/m*3 16.72 C 8.725 km/h
71 12-05-2015 22:00:00 15.48333 C 8.12 g/m*3 15.48 C 4.425 km/h
72 12-05-2015 23:00:00 14.31667 C 7.64 g/m*3 14.32 C 5.63333 km/h

Maximal/Minimal-Werte vom 10.05.2015 - 12.05.2015

Sensor Min Max Avg
Temp
(Aussen-T/F)
8.5 °C
11-05-2015  06:00:00
28.3 °C
12-05-2015  14:45:00
16.65 °C
Abs-Feuchte
(Aussen-T/F)
7.64 g/m*3
12-05-2015  23:00:00
14.76 g/m*3
12-05-2015  16:00:00
10.21 g/m*3
Windchill
(Aussen-T/F)
8.72 C
11-05-2015  05:00:00
27.21 C
12-05-2015  14:00:00
16.41 C

Die Daten stammen von einer Davis Vantage Pro 2 Wetter-Station und werden unter Linux mit der Software wview2wettercgi und aufbereitet. Alle Angaben erfolgen ohne Gewähr für ihre Vollständigkeit oder Richtigkeit.
Kontakt: Rainer Krienke krienke@uni-koblenz.de . Meine Webseiten an der Uni Koblenz oder privat.
Version: $Revision: 0.78 $